createdAt,value
2019-05-20T00:01:02.350Z,5.00
2019-05-20T00:03:09.367Z,4.77
2019-05-20T00:05:16.077Z,4.90
2019-05-20T00:07:24.774Z,4.80
2019-05-20T00:09:29.182Z,4.87
2019-05-20T00:11:33.442Z,4.80
2019-05-20T00:13:37.739Z,4.70
2019-05-20T00:15:42.207Z,5.33
2019-05-20T00:17:47.115Z,5.13
2019-05-20T00:19:51.383Z,5.47
2019-05-20T00:21:55.695Z,5.00
2019-05-20T00:24:00.692Z,4.60
2019-05-20T00:26:06.659Z,5.20
2019-05-20T00:28:15.409Z,5.03
2019-05-20T00:30:25.072Z,5.10
2019-05-20T00:32:40.712Z,5.50
2019-05-20T00:34:35.817Z,5.13
2019-05-20T00:36:40.859Z,4.97
2019-05-20T00:38:48.504Z,5.63
2019-05-20T00:40:53.729Z,4.93
2019-05-20T00:42:58.619Z,4.60
2019-05-20T00:45:03.127Z,5.43
2019-05-20T00:47:10.767Z,4.90
2019-05-20T00:51:29.701Z,4.60
2019-05-20T00:53:34.188Z,5.10
2019-05-20T00:55:38.775Z,4.80
2019-05-20T00:57:43.100Z,5.47
2019-05-20T00:59:47.455Z,5.07
2019-05-20T01:01:52.437Z,5.10
2019-05-20T01:03:57.226Z,5.20
2019-05-20T01:06:01.855Z,4.80
2019-05-20T01:08:08.554Z,5.40
2019-05-20T01:10:16.299Z,5.63
2019-05-20T01:12:25.335Z,5.17
2019-05-20T01:14:29.739Z,5.40
2019-05-20T01:16:35.153Z,4.90
2019-05-20T01:18:39.387Z,5.73
2019-05-20T01:20:43.679Z,5.23
2019-05-20T01:22:48.586Z,5.73
2019-05-20T01:24:52.933Z,4.90
2019-05-20T01:26:57.299Z,4.93
2019-05-20T01:29:02.301Z,4.90
2019-05-20T01:31:09.118Z,5.63
2019-05-20T01:33:16.069Z,5.40
2019-05-20T01:35:25.094Z,5.10
2019-05-20T01:37:29.607Z,5.43
2019-05-20T01:39:33.837Z,5.57
2019-05-20T01:41:38.155Z,5.13
2019-05-20T01:43:42.411Z,5.23
2019-05-20T01:45:46.767Z,5.50
2019-05-20T01:47:51.586Z,5.53
2019-05-20T01:49:58.034Z,4.90
2019-05-20T01:52:04.609Z,5.50
2019-05-20T01:54:14.669Z,4.90
2019-05-20T01:56:22.727Z,5.67
2019-05-20T01:58:27.502Z,5.30
2019-05-20T02:00:31.693Z,4.67
2019-05-20T02:02:36.645Z,5.20
2019-05-20T02:04:40.923Z,4.87
2019-05-20T02:06:45.182Z,5.03
2019-05-20T02:08:50.002Z,4.90
2019-05-20T02:10:56.500Z,5.77
2019-05-20T02:13:00.267Z,5.63
2019-05-20T02:15:12.000Z,5.40
2019-05-20T02:17:18.080Z,5.50
2019-05-20T02:19:26.122Z,5.73
2019-05-20T02:21:30.845Z,5.40
2019-05-20T02:23:35.257Z,5.40
2019-05-20T02:25:39.474Z,5.17
2019-05-20T02:27:45.597Z,5.40
2019-05-20T02:29:50.118Z,5.43
2019-05-20T02:31:54.608Z,5.53
2019-05-20T02:33:59.148Z,5.37
2019-05-20T02:36:03.808Z,5.80
2019-05-20T02:38:12.156Z,5.20
2019-05-20T02:40:23.202Z,4.70
2019-05-20T02:42:27.214Z,5.43
2019-05-20T02:44:31.511Z,5.63
2019-05-20T02:46:35.823Z,4.63
2019-05-20T02:48:40.336Z,5.60
2019-05-20T02:50:44.783Z,5.53
2019-05-20T02:52:48.980Z,5.80
2019-05-20T02:54:55.959Z,5.57
2019-05-20T02:57:00.061Z,5.60
2019-05-20T02:59:04.965Z,5.20
2019-05-20T03:01:13.142Z,5.70
2019-05-20T03:03:24.132Z,5.30
2019-05-20T03:05:28.606Z,5.87
2019-05-20T03:07:32.962Z,5.23
2019-05-20T03:09:37.829Z,5.70
2019-05-20T03:11:42.411Z,5.80
2019-05-20T03:13:46.809Z,5.77
2019-05-20T03:15:51.631Z,5.10
2019-05-20T03:17:56.150Z,5.20
2019-05-20T03:20:00.428Z,5.80
2019-05-20T03:22:05.659Z,5.70
2019-05-20T03:24:14.182Z,4.97
2019-05-20T03:26:24.470Z,4.97
2019-05-20T03:28:28.904Z,5.53
2019-05-20T03:30:33.753Z,5.77
2019-05-20T03:32:38.308Z,5.70
2019-05-20T03:34:48.451Z,5.90
2019-05-20T03:36:48.583Z,5.17
2019-05-20T03:38:55.138Z,5.50
2019-05-20T03:40:59.144Z,5.70
2019-05-20T03:43:03.734Z,5.27
2019-05-20T03:45:11.464Z,5.37
2019-05-20T03:47:17.515Z,5.60
2019-05-20T03:49:22.941Z,5.80
2019-05-20T03:51:32.621Z,5.93
2019-05-20T03:53:36.907Z,5.57
2019-05-20T03:55:41.447Z,5.90
2019-05-20T03:57:45.719Z,5.27
2019-05-20T03:59:50.543Z,5.03
2019-05-20T04:01:54.783Z,5.80
2019-05-20T04:03:58.931Z,5.63
2019-05-20T04:06:03.356Z,5.63
2019-05-20T04:08:11.561Z,5.83
2019-05-20T04:10:19.116Z,5.40
2019-05-20T04:12:27.021Z,5.47
2019-05-20T04:14:31.424Z,6.20
2019-05-20T04:16:35.762Z,5.37
2019-05-20T04:18:40.591Z,6.10
2019-05-20T04:20:44.898Z,5.40
2019-05-20T04:22:49.159Z,5.63
2019-05-20T04:24:54.195Z,5.60
2019-05-20T04:27:00.619Z,5.13
2019-05-20T04:29:06.747Z,5.33
2019-05-20T04:31:13.921Z,5.57
2019-05-20T04:33:20.046Z,5.30
2019-05-20T04:35:26.073Z,5.40
2019-05-20T04:37:30.579Z,6.20
2019-05-20T04:41:54.826Z,5.57
2019-05-20T04:43:59.332Z,5.20
2019-05-20T04:46:04.772Z,5.37
2019-05-20T04:48:13.997Z,5.70
2019-05-20T04:50:25.984Z,6.50
2019-05-20T04:52:30.411Z,4.90
2019-05-20T04:54:34.540Z,5.90
2019-05-20T04:56:40.293Z,5.30
2019-05-20T04:58:45.041Z,5.43
2019-05-20T05:00:59.433Z,5.47
2019-05-20T05:03:04.319Z,5.60
2019-05-20T05:05:13.783Z,5.30
2019-05-20T05:07:18.769Z,6.20
2019-05-20T05:09:26.180Z,6.30
2019-05-20T05:11:30.452Z,5.83
2019-05-20T05:13:34.631Z,5.07
2019-05-20T05:15:39.267Z,6.00
2019-05-20T05:17:46.020Z,5.70
2019-05-20T05:19:50.215Z,5.40
2019-05-20T05:21:54.805Z,4.90
2019-05-20T05:23:59.679Z,5.53
2019-05-20T05:26:03.992Z,5.20
2019-05-20T05:28:10.293Z,5.67
2019-05-20T05:30:22.624Z,5.30
2019-05-20T05:32:42.233Z,5.70
2019-05-20T05:34:46.450Z,6.00
2019-05-20T05:36:50.711Z,5.57
2019-05-20T05:38:55.182Z,5.60
2019-05-20T05:40:59.668Z,5.50
2019-05-20T05:43:04.867Z,5.33
2019-05-20T05:45:13.685Z,6.10
2019-05-20T05:47:24.474Z,6.37
2019-05-20T05:49:29.039Z,5.90
2019-05-20T05:51:33.246Z,6.60
2019-05-20T05:53:37.778Z,6.13
2019-05-20T05:55:42.242Z,6.27
2019-05-20T05:57:46.446Z,5.47
2019-05-20T05:59:51.029Z,6.20
2019-05-20T06:01:55.356Z,6.20
2019-05-20T06:04:00.285Z,6.07
2019-05-20T06:06:12.270Z,6.30
2019-05-20T06:08:14.674Z,5.53
2019-05-20T06:10:22.579Z,6.50
2019-05-20T06:12:27.273Z,6.03
2019-05-20T06:14:31.472Z,5.93
2019-05-20T06:16:37.500Z,5.73
2019-05-20T06:18:41.695Z,5.70
2019-05-20T06:20:46.047Z,5.97
2019-05-20T06:22:50.253Z,5.70
2019-05-20T06:24:54.693Z,6.10
2019-05-20T06:26:58.892Z,6.30
2019-05-20T06:29:04.072Z,6.50
2019-05-20T06:31:12.493Z,6.40
2019-05-20T06:33:22.508Z,6.57
2019-05-20T06:35:28.354Z,5.80
2019-05-20T06:37:34.473Z,6.30
2019-05-20T06:39:38.785Z,7.10
2019-05-20T06:41:43.603Z,6.23
2019-05-20T06:43:48.033Z,6.70
2019-05-20T06:45:52.735Z,6.30
2019-05-20T06:47:57.085Z,6.67
2019-05-20T06:50:01.729Z,6.97
2019-05-20T06:52:07.850Z,6.30
2019-05-20T06:54:15.330Z,6.43
2019-05-20T06:56:24.230Z,6.90
2019-05-20T06:58:28.543Z,6.80
2019-05-20T07:00:34.792Z,7.07
2019-05-20T07:02:38.970Z,6.77
2019-05-20T07:04:43.452Z,7.10
2019-05-20T07:06:47.838Z,6.57
2019-05-20T07:08:52.071Z,6.30
2019-05-20T07:10:56.589Z,6.80
2019-05-20T07:13:01.053Z,6.97
2019-05-20T07:15:06.401Z,7.73
2019-05-20T07:17:14.473Z,6.80
2019-05-20T07:19:24.201Z,7.20
2019-05-20T07:21:28.364Z,7.40
2019-05-20T07:23:32.994Z,7.70
2019-05-20T07:25:37.579Z,7.63
2019-05-20T07:27:41.790Z,7.67
2019-05-20T07:29:45.978Z,6.90
2019-05-20T07:31:50.507Z,7.27
2019-05-20T07:33:54.846Z,7.03
2019-05-20T07:35:59.551Z,7.77
2019-05-20T07:38:04.834Z,8.20
2019-05-20T07:40:13.988Z,7.77
2019-05-20T07:42:25.023Z,7.70
2019-05-20T07:44:29.165Z,8.40
2019-05-20T07:46:33.606Z,8.20
2019-05-20T07:48:38.030Z,8.70
2019-05-20T07:50:42.218Z,8.93
2019-05-20T07:52:46.582Z,8.20
2019-05-20T07:54:51.113Z,8.97
2019-05-20T07:56:55.573Z,9.03
2019-05-20T07:59:01.435Z,8.90
2019-05-20T08:01:07.031Z,8.87
2019-05-20T08:03:13.816Z,8.57
2019-05-20T08:05:19.281Z,8.47
2019-05-20T08:07:35.691Z,9.13
2019-05-20T08:09:31.583Z,8.87
2019-05-20T08:11:35.862Z,9.20
2019-05-20T08:13:40.056Z,8.77
2019-05-20T08:15:44.212Z,9.17
2019-05-20T08:17:48.458Z,10.53
2019-05-20T08:19:53.328Z,8.50
2019-05-20T08:21:57.428Z,9.30
2019-05-20T08:24:01.735Z,10.77
2019-05-20T08:26:08.892Z,10.20
2019-05-20T08:28:17.229Z,10.27
2019-05-20T08:30:35.557Z,10.07
2019-05-20T08:32:40.297Z,10.10
2019-05-20T08:34:44.584Z,9.70
2019-05-20T08:36:48.903Z,10.90
2019-05-20T08:38:53.244Z,10.63
2019-05-20T08:40:57.454Z,10.47
2019-05-20T08:43:01.734Z,9.83
2019-05-20T08:45:06.448Z,10.53
2019-05-20T08:47:14.562Z,9.73
2019-05-20T08:49:24.679Z,11.00
2019-05-20T08:51:28.890Z,11.70
2019-05-20T08:53:33.244Z,11.27
2019-05-20T08:55:37.682Z,11.23
2019-05-20T08:57:42.393Z,11.07
2019-05-20T08:59:47.012Z,11.37
2019-05-20T09:01:51.306Z,10.93
2019-05-20T09:03:55.468Z,10.93
2019-05-20T09:05:59.868Z,11.90
2019-05-20T09:08:04.557Z,10.90
2019-05-20T09:10:11.127Z,11.57
2019-05-20T09:12:18.482Z,12.43
2019-05-20T09:14:27.891Z,12.30
2019-05-20T09:16:32.288Z,11.60
2019-05-20T09:18:36.577Z,11.90
2019-05-20T09:20:41.152Z,11.37
2019-05-20T09:22:45.463Z,12.33
2019-05-20T09:24:50.362Z,10.97
2019-05-20T09:26:54.765Z,11.83
2019-05-20T09:28:59.103Z,11.70
2019-05-20T09:31:03.509Z,12.73
2019-05-20T09:33:12.121Z,11.97
2019-05-20T09:35:21.868Z,12.00
2019-05-20T09:37:26.441Z,12.90
2019-05-20T09:39:30.621Z,12.07
2019-05-20T09:41:35.341Z,11.47
2019-05-20T09:43:39.858Z,11.20
2019-05-20T09:45:44.121Z,12.70
2019-05-20T09:47:48.763Z,12.67
2019-05-20T09:49:53.152Z,12.00
2019-05-20T09:51:57.552Z,11.90
2019-05-20T09:54:01.948Z,12.87
2019-05-20T09:56:07.973Z,11.80
2019-05-20T09:58:16.276Z,12.30
2019-05-20T10:00:29.365Z,12.33
2019-05-20T10:02:38.044Z,13.13
2019-05-20T10:04:39.509Z,12.40
2019-05-20T10:06:43.775Z,12.30
2019-05-20T10:08:48.335Z,12.40
2019-05-20T10:10:52.554Z,12.33
2019-05-20T10:12:56.968Z,13.17
2019-05-20T10:15:01.640Z,12.40
2019-05-20T10:17:07.256Z,13.40
2019-05-20T10:19:14.661Z,12.70
2019-05-20T10:21:20.444Z,13.37
2019-05-20T10:23:28.276Z,13.10
2019-05-20T10:25:32.771Z,12.87
2019-05-20T10:27:37.086Z,13.23
2019-05-20T10:29:41.661Z,12.80
2019-05-20T10:31:45.801Z,13.23
2019-05-20T10:33:50.032Z,13.10
2019-05-20T10:35:54.193Z,12.80
2019-05-20T10:37:58.377Z,12.97
2019-05-20T10:40:10.726Z,13.20
2019-05-20T10:42:19.268Z,13.20
2019-05-20T10:44:26.364Z,13.80
2019-05-20T10:46:30.551Z,13.20
2019-05-20T10:48:34.810Z,14.13
2019-05-20T10:50:39.506Z,13.43
2019-05-20T10:52:43.988Z,13.50
2019-05-20T10:54:48.240Z,13.60
2019-05-20T10:56:52.451Z,12.87
2019-05-20T10:58:56.738Z,12.33
2019-05-20T11:01:03.289Z,13.57
2019-05-20T11:03:10.518Z,12.10
2019-05-20T11:05:25.193Z,13.93
2019-05-20T11:07:30.095Z,13.50
2019-05-20T11:09:34.441Z,13.33
2019-05-20T11:11:39.510Z,13.60
2019-05-20T11:13:43.921Z,14.80
2019-05-20T11:15:48.275Z,13.30
2019-05-20T11:17:52.488Z,13.93
2019-05-20T11:19:56.912Z,12.87
2019-05-20T11:22:01.205Z,12.90
2019-05-20T11:24:06.965Z,13.37
2019-05-20T11:26:14.562Z,13.30
2019-05-20T11:28:22.691Z,13.83
2019-05-20T11:30:26.496Z,13.53
2019-05-20T11:32:30.790Z,13.47
2019-05-20T11:34:35.168Z,12.90
2019-05-20T11:36:39.855Z,12.67
2019-05-20T11:38:44.310Z,12.97
2019-05-20T11:40:48.842Z,13.57
2019-05-20T11:42:53.154Z,12.30
2019-05-20T11:44:57.416Z,12.87
2019-05-20T11:47:01.635Z,13.10
2019-05-20T11:49:07.763Z,12.83
2019-05-20T11:51:14.083Z,13.03
2019-05-20T11:53:26.343Z,12.70
2019-05-20T11:55:30.746Z,12.23
2019-05-20T11:57:35.438Z,13.27
2019-05-20T11:59:39.910Z,12.53
2019-05-20T12:01:44.233Z,13.23
2019-05-20T12:03:48.472Z,13.13
2019-05-20T12:05:52.736Z,13.37
2019-05-20T12:07:56.932Z,12.50
2019-05-20T12:10:03.229Z,11.63
2019-05-20T12:12:10.640Z,13.33
2019-05-20T12:14:16.805Z,12.50
2019-05-20T12:16:23.462Z,11.80
2019-05-20T12:18:27.731Z,12.60
2019-05-20T12:20:32.107Z,12.50
2019-05-20T12:22:37.850Z,10.77
2019-05-20T12:24:42.702Z,12.97
2019-05-20T12:26:46.972Z,12.67
2019-05-20T12:28:51.321Z,13.13
2019-05-20T12:30:56.038Z,12.03
2019-05-20T12:33:17.846Z,12.33
2019-05-20T12:35:08.048Z,12.80
2019-05-20T12:37:16.564Z,12.47
2019-05-20T12:39:25.369Z,12.30
2019-05-20T12:41:29.689Z,12.20
2019-05-20T12:43:33.923Z,13.00
2019-05-20T12:45:38.195Z,11.37
2019-05-20T12:47:42.523Z,11.73
2019-05-20T12:49:46.896Z,12.37
2019-05-20T12:51:51.399Z,12.87
2019-05-20T12:53:55.734Z,11.63
2019-05-20T12:55:59.942Z,12.90
2019-05-20T12:58:04.614Z,12.37
2019-05-20T13:00:13.008Z,12.00
2019-05-20T13:02:23.100Z,12.70
2019-05-20T13:04:27.641Z,12.33
2019-05-20T13:06:32.346Z,13.03
2019-05-20T13:08:38.786Z,13.10
2019-05-20T13:10:43.057Z,12.87
2019-05-20T13:12:47.240Z,12.73
2019-05-20T13:14:51.802Z,13.43
2019-05-20T13:16:56.454Z,13.37
2019-05-20T13:19:01.666Z,13.63
2019-05-20T13:21:08.762Z,13.17
2019-05-20T13:23:16.485Z,13.70
2019-05-20T13:25:24.660Z,13.23
2019-05-20T13:27:29.026Z,14.03
2019-05-20T13:29:33.551Z,14.90
2019-05-20T13:31:37.950Z,14.57
2019-05-20T13:33:42.905Z,14.43
2019-05-20T13:35:47.174Z,14.43
2019-05-20T13:37:51.641Z,14.10
2019-05-20T13:39:56.194Z,14.40
2019-05-20T13:42:00.654Z,14.40
2019-05-20T13:44:05.859Z,14.13
2019-05-20T13:46:13.919Z,14.30
2019-05-20T13:48:27.165Z,14.70
2019-05-20T13:50:31.454Z,14.57
2019-05-20T13:52:35.670Z,12.97
2019-05-20T13:54:39.997Z,13.93
2019-05-20T13:56:44.479Z,13.10
2019-05-20T13:58:48.729Z,13.37
2019-05-20T14:00:53.266Z,14.00
2019-05-20T14:02:57.918Z,13.90
2019-05-20T14:05:03.728Z,13.30
2019-05-20T14:07:12.318Z,12.90
2019-05-20T14:09:21.974Z,13.30
2019-05-20T14:11:34.147Z,13.37
2019-05-20T14:13:32.635Z,11.67
2019-05-20T14:15:37.336Z,12.60
2019-05-20T14:17:41.607Z,14.20
2019-05-20T14:19:45.879Z,13.77
2019-05-20T14:21:50.168Z,13.10
2019-05-20T14:23:54.802Z,12.90
2019-05-20T14:25:59.932Z,12.67
2019-05-20T14:28:09.405Z,12.77
2019-05-20T14:30:14.991Z,13.50
2019-05-20T14:32:24.358Z,11.93
2019-05-20T14:34:32.857Z,12.40
2019-05-20T14:36:41.935Z,12.57
2019-05-20T14:38:51.758Z,12.60
2019-05-20T14:41:20.352Z,12.20
2019-05-20T14:43:24.120Z,12.23
2019-05-20T14:45:32.691Z,12.33
2019-05-20T14:47:41.904Z,12.07
2019-05-20T14:49:46.794Z,11.10
2019-05-20T14:51:58.326Z,11.73
2019-05-20T14:54:08.440Z,12.23
2019-05-20T14:56:22.286Z,10.97
2019-05-20T14:58:27.859Z,10.90
2019-05-20T15:00:34.709Z,10.80
2019-05-20T15:02:45.835Z,10.17
2019-05-20T15:04:58.631Z,11.10
2019-05-20T15:07:05.602Z,10.43
2019-05-20T15:09:24.066Z,12.10
2019-05-20T15:11:38.122Z,10.00
2019-05-20T15:13:41.567Z,10.43
2019-05-20T15:15:52.566Z,11.00
2019-05-20T15:18:04.937Z,10.80
2019-05-20T15:20:30.932Z,11.00
2019-05-20T15:22:47.843Z,10.00
2019-05-20T15:25:08.669Z,10.47
2019-05-20T15:27:17.504Z,10.50
2019-05-20T15:29:28.351Z,10.40
2019-05-20T15:31:33.353Z,9.60
2019-05-20T15:33:39.277Z,9.23
2019-05-20T15:36:11.940Z,9.90
2019-05-20T15:38:34.033Z,9.70
2019-05-20T15:40:39.259Z,9.70
2019-05-20T15:42:55.528Z,9.00
2019-05-20T15:45:04.410Z,9.93
2019-05-20T15:47:29.022Z,9.13
2019-05-20T15:49:40.548Z,8.63
2019-05-20T15:51:53.046Z,9.00
2019-05-20T15:54:04.452Z,8.90
2019-05-20T15:56:20.623Z,9.37
2019-05-20T15:58:28.236Z,8.60
2019-05-20T16:00:39.703Z,8.30
2019-05-20T16:03:00.822Z,9.03
2019-05-20T16:05:18.289Z,8.53
2019-05-20T16:07:28.010Z,9.07
2019-05-20T16:10:31.567Z,8.93
2019-05-20T16:12:44.066Z,8.57
2019-05-20T16:14:54.596Z,8.70
2019-05-20T16:17:01.146Z,8.80
2019-05-20T16:19:12.086Z,8.43
2019-05-20T16:21:22.965Z,8.13
2019-05-20T16:23:28.709Z,8.37
2019-05-20T16:25:39.411Z,8.53
2019-05-20T16:27:53.760Z,8.23
2019-05-20T16:30:24.054Z,8.97
2019-05-20T16:32:41.264Z,8.37
2019-05-20T16:34:59.535Z,7.73
2019-05-20T16:37:09.304Z,8.93
2019-05-20T16:39:30.760Z,8.23
2019-05-20T16:41:47.479Z,8.47
2019-05-20T16:43:54.024Z,7.83
2019-05-20T16:46:08.652Z,7.70
2019-05-20T16:48:30.433Z,8.63
2019-05-20T16:50:44.302Z,8.00
2019-05-20T16:53:02.453Z,7.60
2019-05-20T16:55:12.021Z,8.40
2019-05-20T16:57:26.876Z,7.60
2019-05-20T16:59:32.356Z,7.27
2019-05-20T17:01:46.046Z,8.10
2019-05-20T17:03:44.204Z,7.70
2019-05-20T17:05:51.244Z,8.37
2019-05-20T17:07:57.044Z,7.63
2019-05-20T17:10:01.396Z,7.07
2019-05-20T17:12:08.184Z,7.47
2019-05-20T17:14:16.409Z,7.27
2019-05-20T17:16:24.022Z,8.10
2019-05-20T17:18:28.459Z,8.03
2019-05-20T17:20:33.231Z,7.90
2019-05-20T17:22:38.060Z,7.93
2019-05-20T17:24:43.062Z,7.40
2019-05-20T17:26:48.548Z,7.00
2019-05-20T17:28:53.433Z,7.10
2019-05-20T17:30:58.094Z,7.30
2019-05-20T17:33:05.660Z,7.03
2019-05-20T17:35:14.384Z,6.90
2019-05-20T17:37:24.342Z,7.50
2019-05-20T17:39:29.620Z,7.23
2019-05-20T17:41:35.250Z,7.60
2019-05-20T17:43:39.888Z,7.23
2019-05-20T17:45:45.930Z,7.70
2019-05-20T17:47:50.649Z,7.30
2019-05-20T17:49:57.069Z,7.47
2019-05-20T17:52:03.651Z,7.90
2019-05-20T17:54:10.779Z,6.80
2019-05-20T17:56:29.593Z,7.00
2019-05-20T17:58:37.299Z,6.07
2019-05-20T18:00:45.200Z,6.80
2019-05-20T18:02:52.116Z,6.30
2019-05-20T18:04:57.949Z,6.20
2019-05-20T18:07:05.870Z,6.27
2019-05-20T18:09:20.663Z,6.33
2019-05-20T18:11:29.908Z,6.73
2019-05-20T18:13:42.252Z,6.10
2019-05-20T18:15:54.717Z,6.70
2019-05-20T18:18:07.698Z,6.90
2019-05-20T18:20:23.571Z,6.07
2019-05-20T18:22:32.204Z,7.00
2019-05-20T18:24:38.581Z,6.30
2019-05-20T18:26:51.500Z,6.10
2019-05-20T18:29:03.254Z,6.47
2019-05-20T18:31:31.275Z,6.30
2019-05-20T18:33:35.413Z,6.87
2019-05-20T18:35:41.785Z,6.33
2019-05-20T18:37:51.936Z,6.20
2019-05-20T18:40:13.917Z,6.53
2019-05-20T18:42:41.941Z,6.43
2019-05-20T18:44:51.939Z,5.90
2019-05-20T18:46:58.766Z,6.73
2019-05-20T18:49:04.947Z,6.10
2019-05-20T18:51:25.245Z,6.03
2019-05-20T18:53:34.073Z,6.70
2019-05-20T18:55:45.004Z,6.47
2019-05-20T19:00:04.110Z,6.30
2019-05-20T19:02:22.024Z,7.10
2019-05-20T19:04:29.239Z,7.00
2019-05-20T19:06:34.135Z,6.00
2019-05-20T19:08:43.106Z,6.90
2019-05-20T19:10:47.712Z,6.67
2019-05-20T19:12:57.127Z,6.70
2019-05-20T19:15:04.124Z,6.20
2019-05-20T19:17:16.549Z,6.33
2019-05-20T19:19:37.536Z,6.70
2019-05-20T19:21:46.610Z,6.20
2019-05-20T19:23:51.627Z,6.20
2019-05-20T19:25:59.888Z,7.17
2019-05-20T19:28:11.159Z,6.53
2019-05-20T19:30:32.854Z,5.90
2019-05-20T19:32:39.028Z,6.37
2019-05-20T19:34:50.168Z,7.37
2019-05-20T19:36:57.939Z,6.77
2019-05-20T19:39:05.380Z,6.20
2019-05-20T19:41:23.391Z,6.73
2019-05-20T19:43:31.015Z,5.50
2019-05-20T19:45:40.288Z,6.83
2019-05-20T19:47:47.425Z,7.07
2019-05-20T19:49:52.809Z,6.20
2019-05-20T19:51:57.651Z,5.90
2019-05-20T19:54:02.732Z,5.90
2019-05-20T19:56:14.329Z,6.83
2019-05-20T19:58:24.655Z,7.03
2019-05-20T20:00:29.629Z,6.67
2019-05-20T20:02:36.314Z,6.73
2019-05-20T20:04:42.311Z,6.53
2019-05-20T20:06:47.826Z,6.40
2019-05-20T20:08:53.060Z,6.10
2019-05-20T20:10:59.789Z,6.43
2019-05-20T20:13:07.610Z,6.47
2019-05-20T20:15:20.594Z,6.27
2019-05-20T20:17:29.527Z,6.03
2019-05-20T20:19:33.993Z,6.77
2019-05-20T20:21:39.539Z,6.57
2019-05-20T20:23:44.034Z,5.80
2019-05-20T20:25:48.738Z,5.90
2019-05-20T20:27:53.295Z,6.80
2019-05-20T20:30:04.613Z,6.60
2019-05-20T20:32:13.133Z,6.47
2019-05-20T20:34:24.343Z,6.20
2019-05-20T20:36:28.940Z,6.20
2019-05-20T20:38:33.230Z,7.27
2019-05-20T20:40:37.925Z,6.07
2019-05-20T20:42:43.408Z,6.43
2019-05-20T20:44:48.183Z,6.30
2019-05-20T20:46:52.433Z,5.97
2019-05-20T20:48:57.405Z,6.47
2019-05-20T20:51:04.170Z,6.23
2019-05-20T20:53:20.669Z,6.20
2019-05-20T20:55:32.008Z,6.00
2019-05-20T20:57:36.873Z,6.40
2019-05-20T20:59:41.477Z,5.77
2019-05-20T21:01:46.151Z,6.80
2019-05-20T21:03:50.327Z,6.17
2019-05-20T21:05:55.295Z,5.93
2019-05-20T21:07:59.700Z,6.47
2019-05-20T21:10:06.244Z,6.37
2019-05-20T21:12:15.113Z,5.60
2019-05-20T21:14:25.457Z,5.80
2019-05-20T21:16:29.813Z,6.00
2019-05-20T21:18:34.710Z,6.00
2019-05-20T21:20:40.269Z,5.57
2019-05-20T21:22:44.624Z,5.97
2019-05-20T21:24:49.935Z,5.57
2019-05-20T21:26:54.452Z,6.60
2019-05-20T21:28:58.767Z,5.33
2019-05-20T21:31:03.565Z,5.90
2019-05-20T21:33:09.825Z,6.67
2019-05-20T21:35:26.255Z,6.10
2019-05-20T21:37:30.649Z,5.60
2019-05-20T21:39:34.822Z,5.07
2019-05-20T21:41:40.510Z,5.03
2019-05-20T21:43:45.313Z,5.50
2019-05-20T21:45:49.654Z,4.80
2019-05-20T21:47:54.508Z,5.60
2019-05-20T21:49:59.496Z,5.93
2019-05-20T21:52:04.444Z,5.80
2019-05-20T21:54:12.125Z,5.77
2019-05-20T21:56:23.554Z,5.40
2019-05-20T21:58:28.781Z,5.17
2019-05-20T22:00:53.840Z,5.63
2019-05-20T22:02:59.517Z,5.40
2019-05-20T22:05:04.300Z,5.17
2019-05-20T22:07:13.137Z,6.07
2019-05-20T22:09:22.188Z,5.53
2019-05-20T22:11:26.813Z,6.07
2019-05-20T22:13:31.226Z,5.60
2019-05-20T22:15:36.440Z,5.00
2019-05-20T22:17:40.815Z,5.20
2019-05-20T22:19:45.526Z,5.13
2019-05-20T22:21:55.609Z,5.80
2019-05-20T22:24:02.789Z,5.03
2019-05-20T22:26:09.881Z,4.60
2019-05-20T22:28:15.057Z,5.17
2019-05-20T22:30:21.579Z,4.93
2019-05-20T22:32:26.871Z,5.33
2019-05-20T22:34:31.222Z,5.30
2019-05-20T22:36:35.554Z,5.40
2019-05-20T22:38:40.191Z,4.97
2019-05-20T22:40:44.687Z,5.00
2019-05-20T22:42:49.633Z,4.80
2019-05-20T22:44:53.923Z,5.00
2019-05-20T22:46:58.474Z,4.93
2019-05-20T22:49:02.886Z,5.80
2019-05-20T22:51:09.331Z,5.20
2019-05-20T22:53:16.771Z,4.40
2019-05-20T22:55:26.434Z,5.63
2019-05-20T22:57:32.067Z,4.90
2019-05-20T22:59:36.446Z,5.20
2019-05-20T23:01:41.037Z,4.90
2019-05-20T23:03:55.938Z,4.73
2019-05-20T23:05:51.159Z,5.13
2019-05-20T23:07:55.607Z,5.17
2019-05-20T23:10:00.018Z,5.03
2019-05-20T23:12:05.307Z,4.40
2019-05-20T23:14:15.272Z,4.40
2019-05-20T23:16:23.160Z,4.57
2019-05-20T23:18:27.290Z,4.30
2019-05-20T23:20:31.608Z,4.57
2019-05-20T23:22:36.507Z,4.70
2019-05-20T23:24:40.970Z,4.00
2019-05-20T23:26:45.365Z,4.60
2019-05-20T23:28:49.821Z,4.50
2019-05-20T23:30:54.051Z,4.27
2019-05-20T23:32:58.358Z,4.77
2019-05-20T23:35:02.750Z,5.17
2019-05-20T23:37:10.277Z,4.30
2019-05-20T23:39:16.063Z,4.57
2019-05-20T23:41:22.865Z,4.80
2019-05-20T23:43:27.372Z,4.47
2019-05-20T23:45:31.730Z,4.10
2019-05-20T23:47:36.213Z,4.13
2019-05-20T23:49:40.542Z,4.33
2019-05-20T23:51:45.116Z,4.33
2019-05-20T23:53:49.597Z,4.50
2019-05-20T23:55:54.003Z,4.30
2019-05-20T23:57:58.765Z,4.07
